Earls Colne Airfield


Codes: EGSR/
Name: Earls Colne Airfield
City: Earles Colne
Country: United Kingdom
Elevation: 226 ft.
Wikipedia:

Photos at Earls Colne Airfield


   Photos courtesy of SpottingLog. You can add your own sightings and photos by signing up for a free trial today.



G-ATTX, 02-May-2021
© Richard Lewis Fuller

G-AZOZ, 02-May-2021
© Richard Lewis Fuller

G-AZVB, 02-May-2021
© Richard Lewis Fuller

G-BAGG, 02-May-2021
© Richard Lewis Fuller

G-BEXN, 02-May-2021
© Richard Lewis Fuller

G-BLIT, 02-May-2021
© Richard Lewis Fuller

G-BRHA, 02-May-2021
© Richard Lewis Fuller

G-BWXJ, 02-May-2021
© Richard Lewis Fuller

G-CIGD, 02-May-2021
© Richard Lewis Fuller

G-ECAC, 02-May-2021
© Richard Lewis Fuller

G-ECAF, 02-May-2021
© Richard Lewis Fuller

G-ECAG, 02-May-2021
© Richard Lewis Fuller


Weather at Earls Colne Airfield


Time (UTC)DescriptionTempratureWindCloud coverageVisibilityPressureHumidity
16-Jun-2024 00:00Few Clouds12°C9 mph, SW17%10000m1001hPa85%
16-Jun-2024 03:00Scattered Clouds10°C9 mph, SW26%10000m1001hPa90%
16-Jun-2024 06:00Scattered Clouds11°C11 mph, SW45%10000m1001hPa91%
16-Jun-2024 09:00Light Rain14°C16 mph, SW97%10000m1001hPa84%
16-Jun-2024 12:00Light Rain16°C13 mph, W98%10000m1002hPa68%
16-Jun-2024 15:00Broken Clouds18°C11 mph, W73%10000m1002hPa61%
16-Jun-2024 18:00Light Rain16°C7 mph, SW55%10000m1004hPa78%
16-Jun-2024 21:00Light Rain11°C9 mph, SW14%10000m1006hPa95%
17-Jun-2024 00:00Few Clouds10°C9 mph, SW18%10000m1007hPa97%
17-Jun-2024 03:00Overcast Clouds8°C7 mph, SW93%10000m1008hPa97%
17-Jun-2024 06:00Broken Clouds11°C9 mph, SW59%10000m1009hPa93%
17-Jun-2024 09:00Clear Sky16°C11 mph, SW3%10000m1010hPa71%
17-Jun-2024 12:00Clear Sky18°C9 mph, SW3%10000m1011hPa57%
17-Jun-2024 15:00Few Clouds20°C9 mph, SW15%10000m1011hPa52%
17-Jun-2024 18:00Light Rain17°C9 mph, NW22%10000m1012hPa78%
17-Jun-2024 21:00Overcast Clouds13°C4 mph, NW96%10000m1014hPa89%
18-Jun-2024 00:00Overcast Clouds11°C4 mph, NW91%10000m1015hPa93%
18-Jun-2024 03:00Scattered Clouds10°C4 mph, NW30%10000m1015hPa94%
18-Jun-2024 06:00Scattered Clouds12°C4 mph, N45%10000m1016hPa89%
18-Jun-2024 09:00Broken Clouds17°C7 mph, N79%10000m1017hPa74%
18-Jun-2024 12:00Overcast Clouds19°C4 mph, N90%10000m1017hPa64%
18-Jun-2024 15:00Light Rain18°C7 mph, SE100%10000m1017hPa74%
18-Jun-2024 18:00Light Rain16°C9 mph, E100%10000m1019hPa86%
18-Jun-2024 21:00Overcast Clouds12°C7 mph, E97%10000m1021hPa90%
19-Jun-2024 00:00Broken Clouds9°C7 mph, NE75%10000m1021hPa94%
19-Jun-2024 03:00Broken Clouds8°C7 mph, NE68%10000m1022hPa96%
19-Jun-2024 06:00Broken Clouds12°C9 mph, NE63%10000m1023hPa92%
19-Jun-2024 09:00Clear Sky16°C9 mph, E5%10000m1024hPa72%
19-Jun-2024 12:00Scattered Clouds18°C9 mph, E39%10000m1024hPa66%
19-Jun-2024 15:00Scattered Clouds18°C11 mph, E47%10000m1023hPa68%
19-Jun-2024 18:00Scattered Clouds15°C9 mph, E25%10000m1023hPa78%
19-Jun-2024 21:00Clear Sky10°C7 mph, E6%10000m1022hPa93%
20-Jun-2024 00:00Few Clouds9°C7 mph, NE23%10000m1020hPa89%
20-Jun-2024 03:00Overcast Clouds9°C7 mph, E93%10000m1018hPa89%
20-Jun-2024 06:00Overcast Clouds14°C7 mph, E93%10000m1017hPa86%
20-Jun-2024 09:00Overcast Clouds17°C13 mph, NE96%10000m1014hPa79%
20-Jun-2024 12:00Overcast Clouds19°C13 mph, NE97%10000m1012hPa65%
20-Jun-2024 15:00Light Rain16°C9 mph, NE99%9982m1009hPa85%
20-Jun-2024 18:00Moderate Rain15°C11 mph, NE100%10000m1006hPa96%
20-Jun-2024 21:00Light Rain13°C9 mph, NW100%10000m1006hPa98%